sensor_id;sensor_type;location;lat;lon;timestamp;temperature;humidity
4501;DHT22;2263;54.654;9.410;2023-07-02T00:00:14;18.40;82.10
4501;DHT22;2263;54.654;9.410;2023-07-02T00:02:42;18.30;82.00
4501;DHT22;2263;54.654;9.410;2023-07-02T00:05:10;18.40;82.00
4501;DHT22;2263;54.654;9.410;2023-07-02T00:07:37;18.40;82.10
4501;DHT22;2263;54.654;9.410;2023-07-02T00:10:05;18.40;82.10
4501;DHT22;2263;54.654;9.410;2023-07-02T00:12:33;18.40;82.00
4501;DHT22;2263;54.654;9.410;2023-07-02T00:15:01;18.40;82.10
4501;DHT22;2263;54.654;9.410;2023-07-02T00:17:29;18.30;82.00
4501;DHT22;2263;54.654;9.410;2023-07-02T00:19:57;18.30;82.00
4501;DHT22;2263;54.654;9.410;2023-07-02T00:22:33;18.30;82.10
4501;DHT22;2263;54.654;9.410;2023-07-02T00:25:03;18.30;82.00
4501;DHT22;2263;54.654;9.410;2023-07-02T00:27:31;18.30;82.00
4501;DHT22;2263;54.654;9.410;2023-07-02T00:29:59;18.30;82.00
4501;DHT22;2263;54.654;9.410;2023-07-02T00:32:26;18.30;82.00
4501;DHT22;2263;54.654;9.410;2023-07-02T00:34:54;18.30;82.00
4501;DHT22;2263;54.654;9.410;2023-07-02T00:37:22;18.30;82.00
4501;DHT22;2263;54.654;9.410;2023-07-02T00:39:49;18.30;82.00
4501;DHT22;2263;54.654;9.410;2023-07-02T00:42:17;18.30;81.90
4501;DHT22;2263;54.654;9.410;2023-07-02T00:44:45;18.30;81.90
4501;DHT22;2263;54.654;9.410;2023-07-02T00:47:13;18.20;81.80
4501;DHT22;2263;54.654;9.410;2023-07-02T00:49:41;18.30;81.90
4501;DHT22;2263;54.654;9.410;2023-07-02T00:52:08;18.30;81.90
4501;DHT22;2263;54.654;9.410;2023-07-02T00:54:37;18.20;81.80
4501;DHT22;2263;54.654;9.410;2023-07-02T00:57:05;18.20;81.80
4501;DHT22;2263;54.654;9.410;2023-07-02T00:59:33;18.20;81.80
4501;DHT22;2263;54.654;9.410;2023-07-02T01:02:05;18.20;81.80
4501;DHT22;2263;54.654;9.410;2023-07-02T01:04:34;18.20;81.80
4501;DHT22;2263;54.654;9.410;2023-07-02T01:07:02;18.20;81.70
4501;DHT22;2263;54.654;9.410;2023-07-02T01:09:36;18.20;81.70
4501;DHT22;2263;54.654;9.410;2023-07-02T01:12:07;18.20;81.70
4501;DHT22;2263;54.654;9.410;2023-07-02T01:14:37;18.20;81.70
4501;DHT22;2263;54.654;9.410;2023-07-02T01:17:06;18.20;81.70
4501;DHT22;2263;54.654;9.410;2023-07-02T01:19:49;18.10;81.60
4501;DHT22;2263;54.654;9.410;2023-07-02T01:22:25;18.10;81.60
4501;DHT22;2263;54.654;9.410;2023-07-02T01:24:53;18.10;81.60
4501;DHT22;2263;54.654;9.410;2023-07-02T01:27:22;18.10;81.60
4501;DHT22;2263;54.654;9.410;2023-07-02T01:29:53;18.10;81.60
4501;DHT22;2263;54.654;9.410;2023-07-02T01:32:22;18.10;81.60
4501;DHT22;2263;54.654;9.410;2023-07-02T01:34:53;18.10;81.60
4501;DHT22;2263;54.654;9.410;2023-07-02T01:37:21;18.10;81.60
4501;DHT22;2263;54.654;9.410;2023-07-02T01:39:49;18.10;81.60
4501;DHT22;2263;54.654;9.410;2023-07-02T01:42:18;18.00;81.40
4501;DHT22;2263;54.654;9.410;2023-07-02T01:44:48;18.00;81.40
4501;DHT22;2263;54.654;9.410;2023-07-02T01:47:18;18.00;81.40
4501;DHT22;2263;54.654;9.410;2023-07-02T01:49:47;18.00;81.40
4501;DHT22;2263;54.654;9.410;2023-07-02T01:52:15;18.00;81.40
4501;DHT22;2263;54.654;9.410;2023-07-02T01:54:46;18.00;81.30
4501;DHT22;2263;54.654;9.410;2023-07-02T01:57:14;18.00;81.30
4501;DHT22;2263;54.654;9.410;2023-07-02T01:59:42;18.00;81.20
4501;DHT22;2263;54.654;9.410;2023-07-02T02:02:10;17.90;81.20
4501;DHT22;2263;54.654;9.410;2023-07-02T02:04:38;17.90;81.20
4501;DHT22;2263;54.654;9.410;2023-07-02T02:07:06;17.90;81.20
4501;DHT22;2263;54.654;9.410;2023-07-02T02:09:34;17.90;81.10
4501;DHT22;2263;54.654;9.410;2023-07-02T02:12:02;17.90;81.10
4501;DHT22;2263;54.654;9.410;2023-07-02T02:14:30;17.90;81.10
4501;DHT22;2263;54.654;9.410;2023-07-02T02:16:57;17.90;81.00
4501;DHT22;2263;54.654;9.410;2023-07-02T02:19:25;17.90;81.10
4501;DHT22;2263;54.654;9.410;2023-07-02T02:21:53;17.90;81.00
4501;DHT22;2263;54.654;9.410;2023-07-02T02:24:23;17.80;80.90
4501;DHT22;2263;54.654;9.410;2023-07-02T02:26:51;17.80;80.80
4501;DHT22;2263;54.654;9.410;2023-07-02T02:29:18;17.90;81.10
4501;DHT22;2263;54.654;9.410;2023-07-02T02:31:46;17.80;80.90
4501;DHT22;2263;54.654;9.410;2023-07-02T02:34:14;17.80;80.80
4501;DHT22;2263;54.654;9.410;2023-07-02T02:36:41;17.80;80.90
4501;DHT22;2263;54.654;9.410;2023-07-02T02:39:09;17.80;80.70
4501;DHT22;2263;54.654;9.410;2023-07-02T02:41:37;17.80;80.70
4501;DHT22;2263;54.654;9.410;2023-07-02T02:44:04;17.70;80.70
4501;DHT22;2263;54.654;9.410;2023-07-02T02:46:32;17.70;80.70
4501;DHT22;2263;54.654;9.410;2023-07-02T02:49:00;17.70;80.70
4501;DHT22;2263;54.654;9.410;2023-07-02T02:51:27;17.70;80.60
4501;DHT22;2263;54.654;9.410;2023-07-02T02:53:55;17.70;80.60
4501;DHT22;2263;54.654;9.410;2023-07-02T02:56:22;17.70;80.60
4501;DHT22;2263;54.654;9.410;2023-07-02T02:58:50;17.70;80.60
4501;DHT22;2263;54.654;9.410;2023-07-02T03:01:18;17.70;80.60
4501;DHT22;2263;54.654;9.410;2023-07-02T03:03:45;17.70;80.50
4501;DHT22;2263;54.654;9.410;2023-07-02T03:06:16;17.70;80.60
4501;DHT22;2263;54.654;9.410;2023-07-02T03:08:44;17.60;80.50
4501;DHT22;2263;54.654;9.410;2023-07-02T03:11:11;17.60;80.50
4501;DHT22;2263;54.654;9.410;2023-07-02T03:13:39;17.60;80.30
4501;DHT22;2263;54.654;9.410;2023-07-02T03:16:06;17.60;80.40
4501;DHT22;2263;54.654;9.410;2023-07-02T03:18:35;17.60;80.30
4501;DHT22;2263;54.654;9.410;2023-07-02T03:21:02;17.60;80.30
4501;DHT22;2263;54.654;9.410;2023-07-02T03:23:30;17.60;80.20
4501;DHT22;2263;54.654;9.410;2023-07-02T03:25:58;17.50;80.10
4501;DHT22;2263;54.654;9.410;2023-07-02T03:28:25;17.50;80.00
4501;DHT22;2263;54.654;9.410;2023-07-02T03:30:53;17.50;79.90
4501;DHT22;2263;54.654;9.410;2023-07-02T03:33:20;17.50;80.10
4501;DHT22;2263;54.654;9.410;2023-07-02T03:35:48;17.50;80.00
4501;DHT22;2263;54.654;9.410;2023-07-02T03:38:16;17.50;80.00
4501;DHT22;2263;54.654;9.410;2023-07-02T03:40:43;17.50;80.20
4501;DHT22;2263;54.654;9.410;2023-07-02T03:43:11;17.50;80.10
4501;DHT22;2263;54.654;9.410;2023-07-02T03:45:39;17.50;80.10
4501;DHT22;2263;54.654;9.410;2023-07-02T03:48:06;17.50;80.20
4501;DHT22;2263;54.654;9.410;2023-07-02T03:50:34;17.50;80.20
4501;DHT22;2263;54.654;9.410;2023-07-02T03:53:02;17.40;80.10
4501;DHT22;2263;54.654;9.410;2023-07-02T03:55:30;17.40;80.10
4501;DHT22;2263;54.654;9.410;2023-07-02T03:57:58;17.40;80.20
4501;DHT22;2263;54.654;9.410;2023-07-02T04:00:26;17.40;80.20
4501;DHT22;2263;54.654;9.410;2023-07-02T04:02:53;17.40;80.20
4501;DHT22;2263;54.654;9.410;2023-07-02T04:05:21;17.40;80.20
4501;DHT22;2263;54.654;9.410;2023-07-02T04:07:48;17.40;80.30
4501;DHT22;2263;54.654;9.410;2023-07-02T04:10:16;17.40;80.10
4501;DHT22;2263;54.654;9.410;2023-07-02T04:12:44;17.40;80.30
4501;DHT22;2263;54.654;9.410;2023-07-02T04:15:11;17.40;80.20
4501;DHT22;2263;54.654;9.410;2023-07-02T04:17:39;17.40;80.20
4501;DHT22;2263;54.654;9.410;2023-07-02T04:20:07;17.30;80.10
4501;DHT22;2263;54.654;9.410;2023-07-02T04:22:35;17.40;80.10
4501;DHT22;2263;54.654;9.410;2023-07-02T04:25:03;17.40;80.20
4501;DHT22;2263;54.654;9.410;2023-07-02T04:27:50;17.40;80.10
4501;DHT22;2263;54.654;9.410;2023-07-02T04:30:18;17.30;80.10
4501;DHT22;2263;54.654;9.410;2023-07-02T04:32:46;17.40;80.20
4501;DHT22;2263;54.654;9.410;2023-07-02T04:35:14;17.30;80.10
4501;DHT22;2263;54.654;9.410;2023-07-02T04:37:42;17.30;80.10
4501;DHT22;2263;54.654;9.410;2023-07-02T04:40:10;17.30;80.10
4501;DHT22;2263;54.654;9.410;2023-07-02T04:42:41;17.30;80.20
4501;DHT22;2263;54.654;9.410;2023-07-02T04:45:15;17.30;80.10
4501;DHT22;2263;54.654;9.410;2023-07-02T04:47:45;17.30;80.20
4501;DHT22;2263;54.654;9.410;2023-07-02T04:50:13;17.30;80.20
4501;DHT22;2263;54.654;9.410;2023-07-02T04:52:40;17.30;80.30
4501;DHT22;2263;54.654;9.410;2023-07-02T04:55:08;17.30;80.30
4501;DHT22;2263;54.654;9.410;2023-07-02T04:57:36;17.30;80.30
4501;DHT22;2263;54.654;9.410;2023-07-02T05:00:05;17.30;80.50
4501;DHT22;2263;54.654;9.410;2023-07-02T05:02:33;17.30;80.40
4501;DHT22;2263;54.654;9.410;2023-07-02T05:05:01;17.30;80.50
4501;DHT22;2263;54.654;9.410;2023-07-02T05:07:28;17.30;80.50
4501;DHT22;2263;54.654;9.410;2023-07-02T05:09:56;17.30;80.60
4501;DHT22;2263;54.654;9.410;2023-07-02T05:12:24;17.20;80.50
4501;DHT22;2263;54.654;9.410;2023-07-02T05:14:51;17.30;80.60
4501;DHT22;2263;54.654;9.410;2023-07-02T05:17:19;17.30;80.60
4501;DHT22;2263;54.654;9.410;2023-07-02T05:19:47;17.30;80.70
4501;DHT22;2263;54.654;9.410;2023-07-02T05:22:14;17.30;80.70
4501;DHT22;2263;54.654;9.410;2023-07-02T05:24:45;17.30;80.70
4501;DHT22;2263;54.654;9.410;2023-07-02T05:27:13;17.30;80.60
4501;DHT22;2263;54.654;9.410;2023-07-02T05:29:41;17.20;80.60
4501;DHT22;2263;54.654;9.410;2023-07-02T05:32:09;17.30;80.80
4501;DHT22;2263;54.654;9.410;2023-07-02T05:34:36;17.30;80.70
4501;DHT22;2263;54.654;9.410;2023-07-02T05:37:05;17.30;80.80
4501;DHT22;2263;54.654;9.410;2023-07-02T05:39:34;17.30;80.80
4501;DHT22;2263;54.654;9.410;2023-07-02T05:42:02;17.30;80.90
4501;DHT22;2263;54.654;9.410;2023-07-02T05:44:29;17.30;81.10
4501;DHT22;2263;54.654;9.410;2023-07-02T05:46:57;17.30;81.00
4501;DHT22;2263;54.654;9.410;2023-07-02T05:49:24;17.20;80.90
4501;DHT22;2263;54.654;9.410;2023-07-02T05:51:53;17.20;80.90
4501;DHT22;2263;54.654;9.410;2023-07-02T05:54:21;17.20;81.00
4501;DHT22;2263;54.654;9.410;2023-07-02T05:56:48;17.20;81.00
4501;DHT22;2263;54.654;9.410;2023-07-02T05:59:16;17.20;81.00
4501;DHT22;2263;54.654;9.410;2023-07-02T06:01:46;17.20;81.10
4501;DHT22;2263;54.654;9.410;2023-07-02T06:04:13;17.20;81.10
4501;DHT22;2263;54.654;9.410;2023-07-02T06:06:42;17.20;81.10
4501;DHT22;2263;54.654;9.410;2023-07-02T06:09:10;17.20;81.10
4501;DHT22;2263;54.654;9.410;2023-07-02T06:11:37;17.20;81.10
4501;DHT22;2263;54.654;9.410;2023-07-02T06:14:05;17.20;81.10
4501;DHT22;2263;54.654;9.410;2023-07-02T06:16:33;17.20;81.00
4501;DHT22;2263;54.654;9.410;2023-07-02T06:19:01;17.20;81.00
4501;DHT22;2263;54.654;9.410;2023-07-02T06:21:29;17.20;80.90
4501;DHT22;2263;54.654;9.410;2023-07-02T06:24:01;17.10;80.90
4501;DHT22;2263;54.654;9.410;2023-07-02T06:26:29;17.20;81.00
4501;DHT22;2263;54.654;9.410;2023-07-02T06:28:59;17.20;81.00
4501;DHT22;2263;54.654;9.410;2023-07-02T06:31:26;17.20;81.00
4501;DHT22;2263;54.654;9.410;2023-07-02T06:33:54;17.10;81.00
4501;DHT22;2263;54.654;9.410;2023-07-02T06:36:22;17.20;81.10
4501;DHT22;2263;54.654;9.410;2023-07-02T06:38:49;17.20;81.10
4501;DHT22;2263;54.654;9.410;2023-07-02T06:41:17;17.20;81.30
4501;DHT22;2263;54.654;9.410;2023-07-02T06:43:45;17.20;81.20
4501;DHT22;2263;54.654;9.410;2023-07-02T06:46:12;17.20;81.30
4501;DHT22;2263;54.654;9.410;2023-07-02T06:48:40;17.30;81.60
4501;DHT22;2263;54.654;9.410;2023-07-02T06:51:08;17.30;81.50
4501;DHT22;2263;54.654;9.410;2023-07-02T06:53:36;17.30;81.80
4501;DHT22;2263;54.654;9.410;2023-07-02T06:56:04;17.30;81.70
4501;DHT22;2263;54.654;9.410;2023-07-02T06:58:32;17.30;81.70
4501;DHT22;2263;54.654;9.410;2023-07-02T07:00:59;17.30;81.80
4501;DHT22;2263;54.654;9.410;2023-07-02T07:03:27;17.40;82.20
4501;DHT22;2263;54.654;9.410;2023-07-02T07:05:55;17.40;81.80
4501;DHT22;2263;54.654;9.410;2023-07-02T07:08:22;17.40;82.60
4501;DHT22;2263;54.654;9.410;2023-07-02T07:10:50;17.40;82.20
4501;DHT22;2263;54.654;9.410;2023-07-02T07:13:18;17.50;82.50
4501;DHT22;2263;54.654;9.410;2023-07-02T07:15:46;17.50;82.60
4501;DHT22;2263;54.654;9.410;2023-07-02T07:18:14;17.50;82.60
4501;DHT22;2263;54.654;9.410;2023-07-02T07:20:42;17.50;82.50
4501;DHT22;2263;54.654;9.410;2023-07-02T07:23:10;17.50;82.40
4501;DHT22;2263;54.654;9.410;2023-07-02T07:25:37;17.60;82.50
4501;DHT22;2263;54.654;9.410;2023-07-02T07:28:05;17.60;82.30
4501;DHT22;2263;54.654;9.410;2023-07-02T07:30:32;17.50;82.30
4501;DHT22;2263;54.654;9.410;2023-07-02T07:33:00;17.50;82.20
4501;DHT22;2263;54.654;9.410;2023-07-02T07:35:28;17.50;82.20
4501;DHT22;2263;54.654;9.410;2023-07-02T07:37:55;17.50;82.20
4501;DHT22;2263;54.654;9.410;2023-07-02T07:40:23;17.50;82.20
4501;DHT22;2263;54.654;9.410;2023-07-02T07:42:51;17.50;82.20
4501;DHT22;2263;54.654;9.410;2023-07-02T07:45:18;17.60;82.50
4501;DHT22;2263;54.654;9.410;2023-07-02T07:47:46;17.60;82.50
4501;DHT22;2263;54.654;9.410;2023-07-02T07:50:14;17.60;82.20
4501;DHT22;2263;54.654;9.410;2023-07-02T07:52:43;17.50;82.10
4501;DHT22;2263;54.654;9.410;2023-07-02T07:55:11;17.50;82.10
4501;DHT22;2263;54.654;9.410;2023-07-02T07:57:39;17.50;82.20
4501;DHT22;2263;54.654;9.410;2023-07-02T08:00:07;17.60;82.20
4501;DHT22;2263;54.654;9.410;2023-07-02T08:02:37;17.60;82.20
4501;DHT22;2263;54.654;9.410;2023-07-02T08:05:05;17.60;82.20
4501;DHT22;2263;54.654;9.410;2023-07-02T08:07:52;17.70;82.30
4501;DHT22;2263;54.654;9.410;2023-07-02T08:10:21;17.60;82.30
4501;DHT22;2263;54.654;9.410;2023-07-02T08:12:49;17.70;82.30
4501;DHT22;2263;54.654;9.410;2023-07-02T08:15:17;17.60;82.00
4501;DHT22;2263;54.654;9.410;2023-07-02T08:17:45;17.60;82.10
4501;DHT22;2263;54.654;9.410;2023-07-02T08:20:12;17.70;82.20
4501;DHT22;2263;54.654;9.410;2023-07-02T08:22:40;17.70;82.30
4501;DHT22;2263;54.654;9.410;2023-07-02T08:25:08;17.70;82.20
4501;DHT22;2263;54.654;9.410;2023-07-02T08:27:36;17.70;82.20
4501;DHT22;2263;54.654;9.410;2023-07-02T08:30:04;17.70;82.00
4501;DHT22;2263;54.654;9.410;2023-07-02T08:32:32;17.70;82.10
4501;DHT22;2263;54.654;9.410;2023-07-02T08:35:01;17.70;82.30
4501;DHT22;2263;54.654;9.410;2023-07-02T08:37:28;17.80;82.40
4501;DHT22;2263;54.654;9.410;2023-07-02T08:39:56;17.80;82.20
4501;DHT22;2263;54.654;9.410;2023-07-02T08:42:24;17.80;82.10
4501;DHT22;2263;54.654;9.410;2023-07-02T08:44:59;17.80;82.00
4501;DHT22;2263;54.654;9.410;2023-07-02T08:47:27;17.80;82.00
4501;DHT22;2263;54.654;9.410;2023-07-02T08:49:55;17.80;81.90
4501;DHT22;2263;54.654;9.410;2023-07-02T08:52:22;17.80;81.80
4501;DHT22;2263;54.654;9.410;2023-07-02T08:54:50;17.80;81.70
4501;DHT22;2263;54.654;9.410;2023-07-02T08:57:18;17.80;81.50
4501;DHT22;2263;54.654;9.410;2023-07-02T08:59:48;17.70;81.30
4501;DHT22;2263;54.654;9.410;2023-07-02T09:02:31;17.70;81.20
4501;DHT22;2263;54.654;9.410;2023-07-02T09:05:02;17.80;81.20
4501;DHT22;2263;54.654;9.410;2023-07-02T09:07:30;17.80;81.20
4501;DHT22;2263;54.654;9.410;2023-07-02T09:09:58;17.90;81.30
4501;DHT22;2263;54.654;9.410;2023-07-02T09:12:30;17.90;81.20
4501;DHT22;2263;54.654;9.410;2023-07-02T09:15:04;18.00;81.20
4501;DHT22;2263;54.654;9.410;2023-07-02T09:17:35;18.00;81.00
4501;DHT22;2263;54.654;9.410;2023-07-02T09:20:05;18.10;81.20
4501;DHT22;2263;54.654;9.410;2023-07-02T09:22:35;18.10;81.10
4501;DHT22;2263;54.654;9.410;2023-07-02T09:25:07;18.20;81.00
4501;DHT22;2263;54.654;9.410;2023-07-02T09:27:39;18.20;80.60
4501;DHT22;2263;54.654;9.410;2023-07-02T09:32:35;18.20;80.50
4501;DHT22;2263;54.654;9.410;2023-07-02T09:35:04;18.30;80.60
4501;DHT22;2263;54.654;9.410;2023-07-02T09:37:32;18.30;80.30
4501;DHT22;2263;54.654;9.410;2023-07-02T09:40:00;18.30;80.20
4501;DHT22;2263;54.654;9.410;2023-07-02T09:42:29;18.40;80.20
4501;DHT22;2263;54.654;9.410;2023-07-02T09:44:58;18.40;79.80
4501;DHT22;2263;54.654;9.410;2023-07-02T09:47:27;18.40;79.60
4501;DHT22;2263;54.654;9.410;2023-07-02T09:50:02;18.40;79.40
4501;DHT22;2263;54.654;9.410;2023-07-02T09:52:30;18.40;79.60
4501;DHT22;2263;54.654;9.410;2023-07-02T09:54:58;18.50;79.70
4501;DHT22;2263;54.654;9.410;2023-07-02T09:57:26;18.50;79.70
4501;DHT22;2263;54.654;9.410;2023-07-02T09:59:55;18.50;79.50
4501;DHT22;2263;54.654;9.410;2023-07-02T10:02:23;18.50;79.50
4501;DHT22;2263;54.654;9.410;2023-07-02T10:04:51;18.60;79.40
4501;DHT22;2263;54.654;9.410;2023-07-02T10:07:30;18.60;79.30
4501;DHT22;2263;54.654;9.410;2023-07-02T10:09:57;18.60;79.30
4501;DHT22;2263;54.654;9.410;2023-07-02T10:12:27;18.60;79.10
4501;DHT22;2263;54.654;9.410;2023-07-02T10:14:57;18.60;79.10
4501;DHT22;2263;54.654;9.410;2023-07-02T10:17:27;18.60;79.10
4501;DHT22;2263;54.654;9.410;2023-07-02T10:20:04;18.60;79.00
4501;DHT22;2263;54.654;9.410;2023-07-02T10:22:45;18.60;79.00
4501;DHT22;2263;54.654;9.410;2023-07-02T10:25:25;18.60;78.90
4501;DHT22;2263;54.654;9.410;2023-07-02T10:27:53;18.60;78.60
4501;DHT22;2263;54.654;9.410;2023-07-02T10:30:31;18.60;78.70
4501;DHT22;2263;54.654;9.410;2023-07-02T10:33:16;18.70;78.50
4501;DHT22;2263;54.654;9.410;2023-07-02T10:35:46;18.70;78.30
4501;DHT22;2263;54.654;9.410;2023-07-02T10:40:59;18.70;78.40
4501;DHT22;2263;54.654;9.410;2023-07-02T10:43:31;18.70;78.30
4501;DHT22;2263;54.654;9.410;2023-07-02T10:46:00;18.80;77.80
4501;DHT22;2263;54.654;9.410;2023-07-02T10:48:29;18.80;77.90
4501;DHT22;2263;54.654;9.410;2023-07-02T10:50:57;18.80;77.70
4501;DHT22;2263;54.654;9.410;2023-07-02T10:53:25;18.90;77.60
4501;DHT22;2263;54.654;9.410;2023-07-02T10:55:57;18.90;77.60
4501;DHT22;2263;54.654;9.410;2023-07-02T10:58:26;18.90;77.60
4501;DHT22;2263;54.654;9.410;2023-07-02T11:00:54;18.90;77.30
4501;DHT22;2263;54.654;9.410;2023-07-02T11:03:26;18.90;77.40
4501;DHT22;2263;54.654;9.410;2023-07-02T11:05:54;19.00;77.30
4501;DHT22;2263;54.654;9.410;2023-07-02T11:08:22;18.90;77.40
4501;DHT22;2263;54.654;9.410;2023-07-02T11:11:07;18.90;77.60
4501;DHT22;2263;54.654;9.410;2023-07-02T11:13:44;18.90;78.00
4501;DHT22;2263;54.654;9.410;2023-07-02T11:16:20;18.80;78.00
4501;DHT22;2263;54.654;9.410;2023-07-02T11:18:47;18.80;78.20
4501;DHT22;2263;54.654;9.410;2023-07-02T11:21:15;18.80;78.40
4501;DHT22;2263;54.654;9.410;2023-07-02T11:23:43;18.80;78.60
4501;DHT22;2263;54.654;9.410;2023-07-02T11:26:11;18.80;78.70
4501;DHT22;2263;54.654;9.410;2023-07-02T11:28:48;18.80;78.90
4501;DHT22;2263;54.654;9.410;2023-07-02T11:31:25;18.80;79.10
4501;DHT22;2263;54.654;9.410;2023-07-02T11:33:57;18.80;79.10
4501;DHT22;2263;54.654;9.410;2023-07-02T11:36:24;18.80;79.20
4501;DHT22;2263;54.654;9.410;2023-07-02T11:38:55;18.80;79.00
4501;DHT22;2263;54.654;9.410;2023-07-02T11:41:22;18.80;79.00
4501;DHT22;2263;54.654;9.410;2023-07-02T11:43:50;18.80;79.60
4501;DHT22;2263;54.654;9.410;2023-07-02T11:46:17;18.80;78.80
4501;DHT22;2263;54.654;9.410;2023-07-02T11:48:45;18.80;79.00
4501;DHT22;2263;54.654;9.410;2023-07-02T11:51:13;18.80;78.80
4501;DHT22;2263;54.654;9.410;2023-07-02T11:53:41;18.80;78.90
4501;DHT22;2263;54.654;9.410;2023-07-02T11:56:09;18.80;79.00
4501;DHT22;2263;54.654;9.410;2023-07-02T11:58:37;18.80;78.90
4501;DHT22;2263;54.654;9.410;2023-07-02T12:01:05;18.90;79.00
4501;DHT22;2263;54.654;9.410;2023-07-02T12:03:32;18.90;78.80
4501;DHT22;2263;54.654;9.410;2023-07-02T12:06:00;18.80;78.60
4501;DHT22;2263;54.654;9.410;2023-07-02T12:08:28;18.80;78.40
4501;DHT22;2263;54.654;9.410;2023-07-02T12:10:56;18.80;78.30
4501;DHT22;2263;54.654;9.410;2023-07-02T12:13:24;18.80;78.30
4501;DHT22;2263;54.654;9.410;2023-07-02T12:15:54;18.90;78.10
4501;DHT22;2263;54.654;9.410;2023-07-02T12:18:22;18.90;78.20
4501;DHT22;2263;54.654;9.410;2023-07-02T12:20:49;19.00;78.20
4501;DHT22;2263;54.654;9.410;2023-07-02T12:23:17;19.00;78.20
4501;DHT22;2263;54.654;9.410;2023-07-02T12:25:45;19.10;78.30
4501;DHT22;2263;54.654;9.410;2023-07-02T12:28:14;19.10;78.20
4501;DHT22;2263;54.654;9.410;2023-07-02T12:30:42;19.10;78.00
4501;DHT22;2263;54.654;9.410;2023-07-02T12:33:10;19.10;77.80
4501;DHT22;2263;54.654;9.410;2023-07-02T12:35:37;19.10;77.50
4501;DHT22;2263;54.654;9.410;2023-07-02T12:38:08;19.10;77.30
4501;DHT22;2263;54.654;9.410;2023-07-02T12:40:41;19.20;76.90
4501;DHT22;2263;54.654;9.410;2023-07-02T12:43:09;19.20;76.90
4501;DHT22;2263;54.654;9.410;2023-07-02T12:45:37;19.20;77.00
4501;DHT22;2263;54.654;9.410;2023-07-02T12:48:05;19.30;77.70
4501;DHT22;2263;54.654;9.410;2023-07-02T12:50:32;19.30;76.70
4501;DHT22;2263;54.654;9.410;2023-07-02T12:53:00;19.40;76.60
4501;DHT22;2263;54.654;9.410;2023-07-02T12:55:28;19.40;76.40
4501;DHT22;2263;54.654;9.410;2023-07-02T12:57:55;19.40;75.70
4501;DHT22;2263;54.654;9.410;2023-07-02T13:00:23;19.40;75.20
4501;DHT22;2263;54.654;9.410;2023-07-02T13:02:51;19.50;74.60
4501;DHT22;2263;54.654;9.410;2023-07-02T13:05:31;19.50;75.30
4501;DHT22;2263;54.654;9.410;2023-07-02T13:07:59;19.50;75.40
4501;DHT22;2263;54.654;9.410;2023-07-02T13:10:29;19.50;74.90
4501;DHT22;2263;54.654;9.410;2023-07-02T13:12:57;19.50;75.10
4501;DHT22;2263;54.654;9.410;2023-07-02T13:15:32;19.60;75.10
4501;DHT22;2263;54.654;9.410;2023-07-02T13:18:01;19.40;72.50
4501;DHT22;2263;54.654;9.410;2023-07-02T13:20:29;19.30;74.90
4501;DHT22;2263;54.654;9.410;2023-07-02T13:22:57;19.30;75.30
4501;DHT22;2263;54.654;9.410;2023-07-02T13:25:25;19.40;75.40
4501;DHT22;2263;54.654;9.410;2023-07-02T13:27:53;19.40;75.20
4501;DHT22;2263;54.654;9.410;2023-07-02T13:30:21;19.50;75.10
4501;DHT22;2263;54.654;9.410;2023-07-02T13:32:48;19.50;74.70
4501;DHT22;2263;54.654;9.410;2023-07-02T13:35:16;19.60;74.90
4501;DHT22;2263;54.654;9.410;2023-07-02T13:37:44;19.60;74.90
4501;DHT22;2263;54.654;9.410;2023-07-02T13:40:12;19.60;74.80
4501;DHT22;2263;54.654;9.410;2023-07-02T13:42:40;19.60;74.20
4501;DHT22;2263;54.654;9.410;2023-07-02T13:45:08;19.60;74.40
4501;DHT22;2263;54.654;9.410;2023-07-02T13:47:36;19.60;74.80
4501;DHT22;2263;54.654;9.410;2023-07-02T13:50:04;19.60;75.00
4501;DHT22;2263;54.654;9.410;2023-07-02T13:52:32;19.60;75.00
4501;DHT22;2263;54.654;9.410;2023-07-02T13:55:00;19.60;74.80
4501;DHT22;2263;54.654;9.410;2023-07-02T13:57:28;19.60;74.80
4501;DHT22;2263;54.654;9.410;2023-07-02T13:59:55;19.60;74.60
4501;DHT22;2263;54.654;9.410;2023-07-02T14:02:24;19.60;74.70
4501;DHT22;2263;54.654;9.410;2023-07-02T14:04:54;19.60;74.50
4501;DHT22;2263;54.654;9.410;2023-07-02T14:07:25;19.60;74.60
4501;DHT22;2263;54.654;9.410;2023-07-02T14:09:52;19.60;74.80
4501;DHT22;2263;54.654;9.410;2023-07-02T14:12:22;19.50;75.00
4501;DHT22;2263;54.654;9.410;2023-07-02T14:14:50;19.60;75.90
4501;DHT22;2263;54.654;9.410;2023-07-02T14:17:17;19.60;76.50
4501;DHT22;2263;54.654;9.410;2023-07-02T14:19:45;19.50;76.50
4501;DHT22;2263;54.654;9.410;2023-07-02T14:22:13;19.60;76.60
4501;DHT22;2263;54.654;9.410;2023-07-02T14:24:41;19.60;77.20
4501;DHT22;2263;54.654;9.410;2023-07-02T14:27:08;19.60;76.70
4501;DHT22;2263;54.654;9.410;2023-07-02T14:29:36;19.50;76.80
4501;DHT22;2263;54.654;9.410;2023-07-02T14:32:04;19.50;76.70
4501;DHT22;2263;54.654;9.410;2023-07-02T14:34:32;19.50;77.10
4501;DHT22;2263;54.654;9.410;2023-07-02T14:37:02;19.50;77.30
4501;DHT22;2263;54.654;9.410;2023-07-02T14:39:29;19.40;77.10
4501;DHT22;2263;54.654;9.410;2023-07-02T14:41:57;19.00;78.60
4501;DHT22;2263;54.654;9.410;2023-07-02T14:44:25;18.80;78.40
4501;DHT22;2263;54.654;9.410;2023-07-02T14:46:53;18.60;78.30
4501;DHT22;2263;54.654;9.410;2023-07-02T14:49:21;18.70;78.70
4501;DHT22;2263;54.654;9.410;2023-07-02T14:51:48;18.90;78.40
4501;DHT22;2263;54.654;9.410;2023-07-02T14:54:16;19.00;78.10
4501;DHT22;2263;54.654;9.410;2023-07-02T14:56:44;19.10;78.10
4501;DHT22;2263;54.654;9.410;2023-07-02T14:59:11;19.10;77.70
4501;DHT22;2263;54.654;9.410;2023-07-02T15:01:41;19.20;77.80
4501;DHT22;2263;54.654;9.410;2023-07-02T15:04:08;19.20;78.10
4501;DHT22;2263;54.654;9.410;2023-07-02T15:06:36;19.20;78.00
4501;DHT22;2263;54.654;9.410;2023-07-02T15:09:04;19.30;78.30
4501;DHT22;2263;54.654;9.410;2023-07-02T15:11:32;19.30;78.00
4501;DHT22;2263;54.654;9.410;2023-07-02T15:13:59;19.30;77.80
4501;DHT22;2263;54.654;9.410;2023-07-02T15:16:28;19.30;77.80
4501;DHT22;2263;54.654;9.410;2023-07-02T15:18:55;19.30;77.80
4501;DHT22;2263;54.654;9.410;2023-07-02T15:21:23;19.30;77.50
4501;DHT22;2263;54.654;9.410;2023-07-02T15:23:51;19.30;77.50
4501;DHT22;2263;54.654;9.410;2023-07-02T15:26:19;19.30;77.30
4501;DHT22;2263;54.654;9.410;2023-07-02T15:28:47;19.30;77.50
4501;DHT22;2263;54.654;9.410;2023-07-02T15:31:16;19.40;77.70
4501;DHT22;2263;54.654;9.410;2023-07-02T15:33:47;19.40;77.30
4501;DHT22;2263;54.654;9.410;2023-07-02T15:36:14;19.40;77.40
4501;DHT22;2263;54.654;9.410;2023-07-02T15:38:42;19.40;77.30
4501;DHT22;2263;54.654;9.410;2023-07-02T15:41:15;19.40;77.00
4501;DHT22;2263;54.654;9.410;2023-07-02T15:43:44;19.40;76.70
4501;DHT22;2263;54.654;9.410;2023-07-02T15:46:14;19.40;76.60
4501;DHT22;2263;54.654;9.410;2023-07-02T15:48:43;19.40;76.50
4501;DHT22;2263;54.654;9.410;2023-07-02T15:51:11;19.40;76.60
4501;DHT22;2263;54.654;9.410;2023-07-02T15:53:40;19.40;76.40
4501;DHT22;2263;54.654;9.410;2023-07-02T15:56:08;19.40;75.20
4501;DHT22;2263;54.654;9.410;2023-07-02T15:58:36;19.40;75.20
4501;DHT22;2263;54.654;9.410;2023-07-02T16:01:12;19.40;75.00
4501;DHT22;2263;54.654;9.410;2023-07-02T16:03:41;19.40;74.80
4501;DHT22;2263;54.654;9.410;2023-07-02T16:06:11;19.40;75.00
4501;DHT22;2263;54.654;9.410;2023-07-02T16:08:39;19.40;75.00
4501;DHT22;2263;54.654;9.410;2023-07-02T16:11:08;19.40;74.90
4501;DHT22;2263;54.654;9.410;2023-07-02T16:13:41;19.40;74.60
4501;DHT22;2263;54.654;9.410;2023-07-02T16:16:09;19.40;74.80